createdAt,value
2022-08-03T00:04:48.071Z,101013.00
2022-08-03T00:09:50.432Z,101008.84
2022-08-03T00:14:51.998Z,101008.00
2022-08-03T00:19:54.051Z,100998.88
2022-08-03T00:24:55.643Z,101002.34
2022-08-03T00:29:57.366Z,101000.97
2022-08-03T00:35:07.861Z,101000.63
2022-08-03T00:40:13.919Z,100992.41
2022-08-03T00:45:15.456Z,100990.97
2022-08-03T00:50:18.786Z,100994.47
2022-08-03T00:55:20.618Z,100988.06
2022-08-03T01:00:25.663Z,100982.00
2022-08-03T01:05:27.384Z,100984.63
2022-08-03T01:11:06.587Z,100984.06
2022-08-03T01:16:36.887Z,100976.16
2022-08-03T01:22:00.022Z,100985.69
2022-08-03T01:27:15.851Z,100981.50
2022-08-03T01:32:58.317Z,100988.31
2022-08-03T01:38:02.816Z,100987.19
2022-08-03T01:43:06.539Z,100981.56
2022-08-03T01:48:09.857Z,100975.25
2022-08-03T01:53:14.468Z,100982.22
2022-08-03T01:58:18.713Z,100976.13
2022-08-03T02:03:23.204Z,100966.16
2022-08-03T02:08:27.116Z,100964.19
2022-08-03T02:13:29.520Z,100967.56
2022-08-03T02:18:33.397Z,100968.09
2022-08-03T02:23:34.923Z,100962.16
2022-08-03T02:28:41.613Z,100963.38
2022-08-03T02:33:48.200Z,100964.34
2022-08-03T02:38:53.520Z,100967.28
2022-08-03T02:44:07.011Z,100966.63
2022-08-03T02:49:41.420Z,100960.13
2022-08-03T02:54:35.504Z,100966.09
2022-08-03T02:59:39.033Z,100963.81
2022-08-03T03:04:43.156Z,100958.84
2022-08-03T03:10:04.952Z,100960.69
2022-08-03T03:15:07.924Z,100959.50
2022-08-03T03:20:10.100Z,100964.78
2022-08-03T03:25:12.138Z,100963.53
2022-08-03T03:30:13.919Z,100954.38
2022-08-03T03:35:16.594Z,100964.22
2022-08-03T03:40:19.292Z,100960.88
2022-08-03T03:45:22.285Z,100956.44
2022-08-03T03:50:23.992Z,100965.13
2022-08-03T03:55:25.548Z,100970.13
2022-08-03T04:00:27.123Z,100973.19
2022-08-03T04:05:46.920Z,100967.47
2022-08-03T04:11:14.683Z,100967.88
2022-08-03T04:16:20.625Z,100965.22
2022-08-03T04:21:23.500Z,100968.66
2022-08-03T04:26:29.714Z,100965.19
2022-08-03T04:31:32.317Z,100971.41
2022-08-03T04:36:39.907Z,100978.34
2022-08-03T04:42:08.242Z,100981.00
2022-08-03T04:47:06.416Z,100982.72
2022-08-03T04:52:09.859Z,100981.09
2022-08-03T04:57:22.845Z,100978.69
2022-08-03T05:02:25.041Z,100987.94
2022-08-03T05:07:26.612Z,100990.84
2022-08-03T05:12:37.984Z,100988.88
2022-08-03T05:17:39.943Z,100984.19
2022-08-03T05:22:41.441Z,100995.97
2022-08-03T05:27:43.071Z,100992.00
2022-08-03T05:32:44.745Z,100996.66
2022-08-03T05:37:54.783Z,100990.03
2022-08-03T05:42:57.584Z,100997.28
2022-08-03T05:47:59.522Z,100993.28
2022-08-03T05:53:01.097Z,100994.69
2022-08-03T05:58:03.831Z,100995.19
2022-08-03T06:03:05.372Z,100995.38
2022-08-03T06:08:06.936Z,101002.50
2022-08-03T06:13:08.512Z,101006.41
2022-08-03T06:18:10.292Z,101002.19
2022-08-03T06:23:16.178Z,101000.66
2022-08-03T06:28:51.159Z,100998.09
2022-08-03T06:34:32.153Z,101004.88
2022-08-03T06:39:02.954Z,101004.03
2022-08-03T06:44:04.820Z,101004.03
2022-08-03T06:49:07.646Z,101002.06
2022-08-03T06:54:09.223Z,101004.56
2022-08-03T07:00:10.591Z,101012.22
2022-08-03T07:04:33.354Z,101011.25
2022-08-03T07:09:34.888Z,101020.91
2022-08-03T07:14:36.449Z,101010.88
2022-08-03T07:19:38.227Z,101016.94
2022-08-03T07:24:41.788Z,101016.72
2022-08-03T07:29:43.381Z,101024.50
2022-08-03T07:34:44.988Z,101028.47
2022-08-03T07:39:46.912Z,101030.25
2022-08-03T07:44:48.400Z,101021.06
2022-08-03T07:49:50.246Z,101023.81
2022-08-03T07:54:51.837Z,101021.78
2022-08-03T08:00:01.228Z,101009.09
2022-08-03T08:05:13.633Z,101017.09
2022-08-03T08:10:15.497Z,101013.56
2022-08-03T08:15:17.045Z,101016.81
2022-08-03T08:20:25.241Z,101016.63
2022-08-03T08:25:32.917Z,101017.19
2022-08-03T08:30:34.640Z,101021.94
2022-08-03T08:35:37.177Z,101016.06
2022-08-03T08:40:38.730Z,101022.03
2022-08-03T08:45:41.260Z,101026.78
2022-08-03T08:50:43.452Z,101016.03
2022-08-03T08:55:59.419Z,101017.34
2022-08-03T09:01:02.040Z,101012.22
2022-08-03T09:06:05.114Z,101010.94
2022-08-03T09:11:07.641Z,101009.66
2022-08-03T09:16:18.380Z,101007.38
2022-08-03T09:21:33.708Z,101015.69
2022-08-03T09:26:37.674Z,101019.84
2022-08-03T09:31:43.697Z,101012.22
2022-08-03T09:36:46.710Z,101012.28
2022-08-03T09:42:18.700Z,101010.72
2022-08-03T09:47:30.130Z,101010.66
2022-08-03T09:52:39.143Z,101004.72
2022-08-03T09:57:52.164Z,101004.38
2022-08-03T10:03:04.595Z,100999.78
2022-08-03T10:08:15.302Z,100999.22
2022-08-03T10:13:18.758Z,101000.19
2022-08-03T10:18:20.345Z,100993.53
2022-08-03T10:23:22.947Z,100986.41
2022-08-03T10:28:24.968Z,100988.19
2022-08-03T10:33:50.844Z,100983.47
2022-08-03T10:38:55.060Z,100981.88
2022-08-03T10:44:02.747Z,100972.53
2022-08-03T10:49:06.014Z,100960.59
2022-08-03T10:54:11.958Z,100954.50
2022-08-03T10:59:27.491Z,100961.63
2022-08-03T11:04:30.443Z,100955.97
2022-08-03T11:09:41.964Z,100950.69
2022-08-03T11:14:48.603Z,100952.91
2022-08-03T11:19:58.121Z,100946.88
2022-08-03T11:25:00.624Z,100947.28
2022-08-03T11:30:11.303Z,100943.91
2022-08-03T11:35:15.063Z,100936.38
2022-08-03T11:40:32.805Z,100941.53
2022-08-03T11:45:35.306Z,100952.00
2022-08-03T11:50:37.960Z,100940.00
2022-08-03T11:55:41.957Z,100943.78
2022-08-03T12:00:43.612Z,100933.47
2022-08-03T12:05:53.505Z,100928.69
2022-08-03T12:10:59.977Z,100930.09
2022-08-03T12:16:02.335Z,100924.22
2022-08-03T12:21:10.088Z,100916.34
2022-08-03T12:26:11.596Z,100920.03
2022-08-03T12:31:13.600Z,100920.88
2022-08-03T12:36:15.082Z,100904.03
2022-08-03T12:41:16.673Z,100904.22
2022-08-03T12:46:19.618Z,100902.00
2022-08-03T12:51:21.088Z,100908.88
2022-08-03T12:56:22.779Z,100912.28
2022-08-03T13:01:24.504Z,100909.38
2022-08-03T13:06:27.565Z,100902.31
2022-08-03T13:11:53.534Z,100902.31
2022-08-03T13:16:51.006Z,100895.56
2022-08-03T13:22:03.703Z,100896.00
2022-08-03T13:28:01.404Z,100901.06
2022-08-03T13:32:28.913Z,100896.34
2022-08-03T13:37:32.187Z,100892.16
2022-08-03T13:42:35.172Z,100889.34
2022-08-03T13:47:37.735Z,100888.13
2022-08-03T13:52:39.299Z,100881.72
2022-08-03T13:58:11.638Z,100883.00
2022-08-03T14:03:10.840Z,100877.22
2022-08-03T14:08:14.650Z,100859.63
2022-08-03T14:13:17.510Z,100855.44
2022-08-03T14:18:29.118Z,100853.94
2022-08-03T14:23:37.735Z,100857.38
2022-08-03T14:28:39.481Z,100851.56
2022-08-03T14:33:41.074Z,100836.16
2022-08-03T14:38:42.728Z,100838.16
2022-08-03T14:44:01.061Z,100841.44
2022-08-03T14:50:38.544Z,100825.00
2022-08-03T14:54:26.813Z,100827.94
2022-08-03T14:59:28.364Z,100819.19
2022-08-03T15:04:49.898Z,100827.56
2022-08-03T15:09:55.748Z,100822.13
2022-08-03T15:14:57.220Z,100810.53
2022-08-03T15:20:02.416Z,100806.72
2022-08-03T15:26:28.199Z,100805.38
2022-08-03T15:30:41.965Z,100800.47
2022-08-03T15:35:43.700Z,100801.06
2022-08-03T15:40:45.590Z,100801.97
2022-08-03T15:45:47.471Z,100797.78
2022-08-03T15:50:48.984Z,100792.41
2022-08-03T15:55:50.580Z,100792.41
2022-08-03T16:00:52.160Z,100786.75
2022-08-03T16:05:54.356Z,100779.66
2022-08-03T16:10:56.622Z,100782.19
2022-08-03T16:16:00.890Z,100780.78
2022-08-03T16:21:02.479Z,100774.66
2022-08-03T16:26:08.711Z,100769.16
2022-08-03T16:31:10.564Z,100776.97
2022-08-03T16:36:12.076Z,100771.19
2022-08-03T16:41:13.640Z,100774.25
2022-08-03T16:46:15.233Z,100769.88
2022-08-03T16:51:16.891Z,100760.00
2022-08-03T16:56:18.486Z,100757.34
2022-08-03T17:01:24.248Z,100758.31
2022-08-03T17:06:34.447Z,100762.16
2022-08-03T17:11:43.901Z,100755.28
2022-08-03T17:16:53.042Z,100753.00
2022-08-03T17:22:10.619Z,100756.41
2022-08-03T17:28:41.655Z,100756.19
2022-08-03T17:32:56.960Z,100754.47
2022-08-03T17:38:03.015Z,100762.03
2022-08-03T17:44:13.678Z,100757.25
2022-08-03T17:48:27.151Z,100756.25
2022-08-03T17:53:32.828Z,100757.97
2022-08-03T17:58:56.113Z,100765.53
2022-08-03T18:04:02.941Z,100760.56
2022-08-03T18:14:57.396Z,100758.34
2022-08-03T18:20:09.803Z,100761.44
2022-08-03T18:25:19.256Z,100761.09
2022-08-03T18:30:54.387Z,100764.44
2022-08-03T18:35:57.597Z,100763.72
2022-08-03T18:40:59.218Z,100759.22
2022-08-03T18:46:06.140Z,100762.28
2022-08-03T18:56:43.719Z,100760.03
2022-08-03T19:01:59.671Z,100758.06
2022-08-03T19:07:17.490Z,100758.06
2022-08-03T19:12:39.447Z,100769.53
2022-08-03T19:17:52.737Z,100770.22
2022-08-03T19:22:55.980Z,100773.09
2022-08-03T19:28:00.498Z,100776.94
2022-08-03T19:33:05.850Z,100773.31
2022-08-03T19:38:09.470Z,100785.84
2022-08-03T19:43:58.873Z,100775.22
2022-08-03T19:49:15.055Z,100783.97
2022-08-03T19:54:29.310Z,100780.22
2022-08-03T19:59:40.499Z,100790.31
2022-08-03T20:04:52.625Z,100780.63
2022-08-03T20:09:56.453Z,100776.75
2022-08-03T20:14:58.984Z,100778.47
2022-08-03T20:20:00.670Z,100780.22
2022-08-03T20:25:07.439Z,100785.59
2022-08-03T20:30:14.308Z,100776.69
2022-08-03T20:35:16.104Z,100778.03
2022-08-03T20:40:17.715Z,100786.97
2022-08-03T20:45:58.219Z,100786.66
2022-08-03T20:50:41.428Z,100779.84
2022-08-03T20:55:48.047Z,100786.50
2022-08-03T21:01:03.583Z,100778.16
2022-08-03T21:06:07.050Z,100779.59
2022-08-03T21:11:18.992Z,100782.44
2022-08-03T21:12:57.103Z,100762.63
2022-08-03T21:13:00.575Z,100755.13
2022-08-03T21:16:26.790Z,100781.91
2022-08-03T21:21:31.690Z,100772.13
2022-08-03T21:26:36.151Z,100765.81
2022-08-03T21:31:39.257Z,100772.69
2022-08-03T21:36:40.885Z,100772.41
2022-08-03T21:41:42.507Z,100767.84
2022-08-03T21:46:45.317Z,100768.41
2022-08-03T21:51:49.533Z,100763.19
2022-08-03T21:56:51.519Z,100771.50
2022-08-03T22:01:55.438Z,100766.19
2022-08-03T22:07:00.925Z,100760.91
2022-08-03T22:12:02.939Z,100769.75
2022-08-03T22:17:07.312Z,100760.28
2022-08-03T22:22:13.775Z,100759.16
2022-08-03T22:27:32.260Z,100763.69
2022-08-03T22:32:34.137Z,100771.34
2022-08-03T22:37:37.144Z,100776.31
2022-08-03T22:42:41.126Z,100775.47
2022-08-03T22:47:43.127Z,100772.44
2022-08-03T22:52:44.773Z,100767.97
2022-08-03T22:57:46.379Z,100767.13
2022-08-03T23:03:02.084Z,100766.41
2022-08-03T23:08:04.784Z,100761.53
2022-08-03T23:13:07.236Z,100765.47
2022-08-03T23:18:09.439Z,100774.47
2022-08-03T23:23:11.171Z,100763.50
2022-08-03T23:28:18.345Z,100766.41
2022-08-03T23:33:21.400Z,100759.97
2022-08-03T23:38:28.567Z,100754.56
2022-08-03T23:43:50.852Z,100755.94
2022-08-03T23:48:56.518Z,100757.13
2022-08-03T23:54:06.465Z,100753.25
2022-08-03T23:59:23.831Z,100758.59
